createdAt,value
2024-02-10T00:01:40.771Z,10.15
2024-02-10T00:04:08.382Z,11.47
2024-02-10T00:06:40.754Z,10.10
2024-02-10T00:09:08.489Z,10.67
2024-02-10T00:11:40.098Z,10.90
2024-02-10T00:14:07.659Z,10.57
2024-02-10T00:16:35.030Z,12.73
2024-02-10T00:19:11.384Z,10.77
2024-02-10T00:21:39.474Z,11.18
2024-02-10T00:24:06.796Z,11.10
2024-02-10T00:26:34.135Z,13.57
2024-02-10T00:29:02.859Z,11.95
2024-02-10T00:31:31.244Z,15.38
2024-02-10T00:33:59.440Z,12.38
2024-02-10T00:36:27.065Z,11.93
2024-02-10T00:38:54.384Z,10.38
2024-02-10T00:41:21.541Z,12.35
2024-02-10T00:43:50.678Z,10.98
2024-02-10T00:46:18.096Z,12.52
2024-02-10T00:48:48.954Z,13.48
2024-02-10T00:51:16.508Z,18.13
2024-02-10T00:53:43.966Z,11.98
2024-02-10T00:56:11.697Z,19.05
2024-02-10T00:58:42.322Z,15.70
2024-02-10T01:01:21.546Z,15.30
2024-02-10T01:03:52.684Z,17.73
2024-02-10T01:06:21.869Z,14.68
2024-02-10T01:08:51.854Z,16.35
2024-02-10T01:11:20.120Z,14.00
2024-02-10T01:13:48.086Z,16.60
2024-02-10T01:16:18.876Z,15.57
2024-02-10T01:18:47.486Z,16.23
2024-02-10T01:21:14.918Z,16.65
2024-02-10T01:23:43.799Z,15.00
2024-02-10T01:26:13.446Z,16.23
2024-02-10T01:28:45.790Z,19.83
2024-02-10T01:33:46.457Z,14.32
2024-02-10T01:36:14.013Z,16.25
2024-02-10T01:38:45.962Z,17.00
2024-02-10T01:41:16.301Z,15.18
2024-02-10T01:43:44.584Z,14.77
2024-02-10T01:46:16.378Z,15.50
2024-02-10T01:48:43.913Z,14.95
2024-02-10T01:51:11.972Z,18.92
2024-02-10T01:53:42.315Z,14.90
2024-02-10T01:56:12.719Z,15.80
2024-02-10T01:58:43.670Z,14.33
2024-02-10T02:01:12.274Z,14.00
2024-02-10T02:03:47.179Z,17.42
2024-02-10T02:06:18.614Z,14.40
2024-02-10T02:08:50.701Z,12.82
2024-02-10T02:11:17.956Z,17.30
2024-02-10T02:13:45.332Z,14.43
2024-02-10T02:16:13.666Z,13.48
2024-02-10T02:18:44.812Z,16.50
2024-02-10T02:21:12.717Z,16.55
2024-02-10T02:23:39.882Z,11.95
2024-02-10T02:26:07.064Z,17.52
2024-02-10T02:28:34.251Z,13.77
2024-02-10T02:31:05.021Z,16.08
2024-02-10T02:36:18.264Z,12.68
2024-02-10T02:38:45.422Z,15.63
2024-02-10T02:41:12.834Z,14.27
2024-02-10T02:43:40.077Z,14.73
2024-02-10T02:46:10.774Z,17.77
2024-02-10T02:48:41.116Z,15.23
2024-02-10T02:51:08.815Z,17.83
2024-02-10T02:53:35.933Z,20.15
2024-02-10T02:56:03.356Z,22.58
2024-02-10T02:58:32.763Z,18.47
2024-02-10T03:01:00.048Z,21.65
2024-02-10T03:03:29.551Z,19.38
2024-02-10T03:05:58.336Z,18.77
2024-02-10T03:08:26.757Z,16.60
2024-02-10T03:10:54.234Z,17.20
2024-02-10T03:13:21.423Z,17.13
2024-02-10T03:15:48.637Z,16.95
2024-02-10T03:18:15.808Z,18.20
2024-02-10T03:20:43.013Z,21.42
2024-02-10T03:23:14.857Z,18.77
2024-02-10T03:25:44.880Z,19.63
2024-02-10T03:28:11.996Z,17.63
2024-02-10T03:30:39.104Z,17.08
2024-02-10T03:33:06.328Z,15.57
2024-02-10T03:35:34.413Z,17.65
2024-02-10T03:38:02.043Z,17.67
2024-02-10T03:40:30.255Z,13.80
2024-02-10T03:42:57.600Z,13.80
2024-02-10T03:45:26.987Z,11.63
2024-02-10T03:48:04.110Z,12.38
2024-02-10T03:50:31.281Z,9.75
2024-02-10T03:53:00.509Z,8.55
2024-02-10T03:55:31.120Z,8.40
2024-02-10T03:58:00.389Z,10.43
2024-02-10T04:00:29.809Z,8.20
2024-02-10T04:02:57.471Z,8.63
2024-02-10T04:05:34.277Z,7.95
2024-02-10T04:08:01.576Z,7.10
2024-02-10T04:10:29.430Z,8.50
2024-02-10T04:12:56.659Z,9.70
2024-02-10T04:15:23.922Z,6.82
2024-02-10T04:17:54.564Z,8.63
2024-02-10T04:20:24.144Z,9.77
2024-02-10T04:22:51.864Z,8.75
2024-02-10T04:25:19.597Z,6.82
2024-02-10T04:27:46.813Z,6.93
2024-02-10T04:30:14.780Z,6.70
2024-02-10T04:32:43.778Z,8.70
2024-02-10T04:35:11.168Z,7.25
2024-02-10T04:37:39.478Z,8.57
2024-02-10T04:40:07.438Z,6.15
2024-02-10T04:42:34.560Z,7.55
2024-02-10T04:45:01.765Z,7.03
2024-02-10T04:47:28.904Z,7.25
2024-02-10T04:49:57.150Z,7.50
2024-02-10T04:52:24.419Z,8.43
2024-02-10T04:54:54.440Z,8.27
2024-02-10T04:57:29.338Z,6.88
2024-02-10T04:59:57.108Z,7.95
2024-02-10T05:02:24.851Z,7.40
2024-02-10T05:04:52.397Z,8.30
2024-02-10T05:07:20.877Z,6.95
2024-02-10T05:09:48.158Z,7.43
2024-02-10T05:12:15.279Z,6.70
2024-02-10T05:14:42.433Z,6.30
2024-02-10T05:17:09.575Z,7.75
2024-02-10T05:19:37.052Z,8.73
2024-02-10T05:22:09.242Z,6.70
2024-02-10T05:24:42.225Z,7.60
2024-02-10T05:27:09.330Z,7.27
2024-02-10T05:29:37.100Z,9.70
2024-02-10T05:32:05.583Z,7.93
2024-02-10T05:34:32.729Z,7.43
2024-02-10T05:37:01.185Z,8.00
2024-02-10T05:39:28.307Z,8.70
2024-02-10T05:41:56.053Z,8.18
2024-02-10T05:44:23.958Z,7.68
2024-02-10T05:46:51.836Z,7.45
2024-02-10T05:49:22.396Z,9.45
2024-02-10T05:51:50.107Z,8.63
2024-02-10T05:54:17.228Z,10.05
2024-02-10T05:56:46.158Z,9.73
2024-02-10T05:59:13.783Z,9.85
2024-02-10T06:01:40.961Z,8.50
2024-02-10T06:04:10.998Z,9.35
2024-02-10T06:06:38.582Z,8.50
2024-02-10T06:09:08.880Z,10.00
2024-02-10T06:11:36.023Z,10.07
2024-02-10T06:14:03.247Z,10.77
2024-02-10T06:16:31.712Z,9.77
2024-02-10T06:19:00.489Z,11.05
2024-02-10T06:21:27.847Z,11.48
2024-02-10T06:23:55.034Z,9.60
2024-02-10T06:26:24.298Z,11.73
2024-02-10T06:28:52.178Z,9.27
2024-02-10T06:31:19.884Z,9.27
2024-02-10T06:33:49.595Z,10.18
2024-02-10T06:36:17.015Z,9.60
2024-02-10T06:38:44.850Z,10.27
2024-02-10T06:41:12.213Z,8.93
2024-02-10T06:43:40.305Z,10.07
2024-02-10T06:46:08.819Z,8.95
2024-02-10T06:48:36.992Z,12.75
2024-02-10T06:51:04.309Z,11.98
2024-02-10T06:53:31.464Z,10.60
2024-02-10T06:56:00.333Z,10.90
2024-02-10T06:58:27.677Z,10.63
2024-02-10T07:00:56.547Z,10.05
2024-02-10T07:03:24.303Z,11.45
2024-02-10T07:05:53.999Z,11.23
2024-02-10T07:08:24.160Z,10.52
2024-02-10T07:10:51.619Z,10.45
2024-02-10T07:13:19.234Z,11.60
2024-02-10T07:15:46.491Z,9.70
2024-02-10T07:18:14.349Z,11.75
2024-02-10T07:20:42.357Z,8.85
2024-02-10T07:23:09.528Z,8.88
2024-02-10T07:25:40.488Z,9.82
2024-02-10T07:28:10.063Z,8.75
2024-02-10T07:30:37.473Z,7.63
2024-02-10T07:33:09.654Z,10.70
2024-02-10T07:35:37.192Z,10.13
2024-02-10T07:38:04.430Z,8.63
2024-02-10T07:40:31.599Z,9.45
2024-02-10T07:42:58.842Z,11.13
2024-02-10T07:45:25.981Z,9.40
2024-02-10T07:47:57.179Z,8.57
2024-02-10T07:50:24.548Z,8.77
2024-02-10T07:52:54.641Z,8.02
2024-02-10T07:55:22.090Z,9.57
2024-02-10T07:57:49.755Z,9.75
2024-02-10T08:00:19.884Z,8.37
2024-02-10T08:02:47.269Z,7.72
2024-02-10T08:05:21.569Z,8.65
2024-02-10T08:07:49.076Z,8.30
2024-02-10T08:10:17.187Z,7.70
2024-02-10T08:12:47.276Z,7.60
2024-02-10T08:15:14.665Z,9.63
2024-02-10T08:17:42.243Z,7.93
2024-02-10T08:20:12.057Z,9.95
2024-02-10T08:22:39.317Z,7.13
2024-02-10T08:25:08.501Z,7.47
2024-02-10T08:27:35.822Z,7.57
2024-02-10T08:30:04.521Z,7.40
2024-02-10T08:32:33.552Z,7.55
2024-02-10T08:35:02.225Z,8.63
2024-02-10T08:37:31.014Z,7.63
2024-02-10T08:39:59.601Z,6.95
2024-02-10T08:42:28.460Z,6.97
2024-02-10T08:44:55.859Z,6.50
2024-02-10T08:47:23.042Z,5.97
2024-02-10T08:49:50.725Z,6.22
2024-02-10T08:52:23.323Z,5.95
2024-02-10T08:54:52.567Z,6.15
2024-02-10T08:57:21.103Z,5.87
2024-02-10T08:59:49.678Z,5.72
2024-02-10T09:02:18.230Z,5.00
2024-02-10T09:04:46.386Z,6.03
2024-02-10T09:07:14.062Z,5.07
2024-02-10T09:09:46.411Z,5.60
2024-02-10T09:12:13.962Z,4.90
2024-02-10T09:14:41.082Z,6.18
2024-02-10T09:17:08.256Z,5.28
2024-02-10T09:19:36.510Z,5.30
2024-02-10T09:22:05.599Z,5.25
2024-02-10T09:24:34.859Z,4.85
2024-02-10T09:27:02.943Z,4.28
2024-02-10T09:29:30.802Z,4.82
2024-02-10T09:32:01.728Z,5.18
2024-02-10T09:34:29.918Z,4.40
2024-02-10T09:37:00.212Z,4.40
2024-02-10T09:39:27.572Z,4.47
2024-02-10T09:41:57.280Z,4.22
2024-02-10T09:44:24.550Z,4.15
2024-02-10T09:46:52.292Z,5.03
2024-02-10T09:49:20.653Z,3.83
2024-02-10T09:51:47.970Z,4.43
2024-02-10T09:54:15.506Z,4.40
2024-02-10T09:56:44.406Z,3.80
2024-02-10T09:59:19.356Z,4.82
2024-02-10T10:01:47.006Z,4.20
2024-02-10T10:04:14.234Z,4.13
2024-02-10T10:06:45.097Z,3.95
2024-02-10T10:09:19.587Z,3.80
2024-02-10T10:11:47.672Z,3.80
2024-02-10T10:14:15.110Z,4.23
2024-02-10T10:16:42.988Z,3.75
2024-02-10T10:19:20.320Z,3.78
2024-02-10T10:21:49.916Z,3.67
2024-02-10T10:24:17.147Z,3.78
2024-02-10T10:26:44.895Z,4.95
2024-02-10T10:29:12.434Z,3.97
2024-02-10T10:31:40.627Z,3.70
2024-02-10T10:34:11.693Z,3.50
2024-02-10T10:36:39.196Z,3.70
2024-02-10T10:39:07.916Z,4.43
2024-02-10T10:41:37.237Z,3.80
2024-02-10T10:44:05.542Z,3.60
2024-02-10T10:46:32.876Z,2.92
2024-02-10T10:49:02.794Z,4.65
2024-02-10T10:51:36.374Z,3.50
2024-02-10T10:54:05.073Z,3.60
2024-02-10T10:56:33.154Z,5.10
2024-02-10T10:59:02.622Z,3.70
2024-02-10T11:01:31.166Z,3.60
2024-02-10T11:04:02.750Z,3.85
2024-02-10T11:06:30.468Z,3.90
2024-02-10T11:08:59.852Z,3.63
2024-02-10T11:11:36.780Z,4.10
2024-02-10T11:14:10.616Z,3.37
2024-02-10T11:16:37.938Z,3.30
2024-02-10T11:19:05.320Z,3.60
2024-02-10T11:21:34.609Z,3.97
2024-02-10T11:24:09.144Z,3.30
2024-02-10T11:26:40.462Z,3.85
2024-02-10T11:29:08.761Z,5.18
2024-02-10T11:31:38.585Z,3.45
2024-02-10T11:34:07.123Z,3.35
2024-02-10T11:36:36.153Z,3.10
2024-02-10T11:39:04.220Z,3.33
2024-02-10T11:41:32.448Z,3.67
2024-02-10T11:43:59.711Z,3.30
2024-02-10T11:46:29.760Z,3.50
2024-02-10T11:49:01.057Z,3.38
2024-02-10T11:51:30.058Z,3.53
2024-02-10T11:54:00.900Z,3.20
2024-02-10T11:56:35.264Z,3.25
2024-02-10T11:59:04.688Z,4.10
2024-02-10T12:01:34.237Z,3.45
2024-02-10T12:04:05.467Z,3.45
2024-02-10T12:06:35.050Z,3.45
2024-02-10T12:09:04.840Z,3.35
2024-02-10T12:11:32.061Z,3.40
2024-02-10T12:13:59.501Z,3.47
2024-02-10T12:16:28.821Z,3.50
2024-02-10T12:18:57.146Z,3.38
2024-02-10T12:21:27.605Z,3.50
2024-02-10T12:23:55.236Z,3.50
2024-02-10T12:26:24.109Z,3.05
2024-02-10T12:28:52.561Z,4.32
2024-02-10T12:31:22.150Z,6.15
2024-02-10T12:33:51.645Z,2.90
2024-02-10T12:36:24.088Z,3.22
2024-02-10T12:38:59.340Z,3.08
2024-02-10T12:41:27.130Z,3.60
2024-02-10T12:43:54.480Z,3.38
2024-02-10T12:46:21.722Z,3.65
2024-02-10T12:48:51.849Z,4.40
2024-02-10T12:51:19.103Z,3.65
2024-02-10T12:53:46.224Z,3.97
2024-02-10T12:56:13.639Z,3.92
2024-02-10T12:58:40.882Z,3.60
2024-02-10T13:01:08.643Z,3.70
2024-02-10T13:03:37.135Z,3.83
2024-02-10T13:06:04.623Z,3.65
2024-02-10T13:08:31.867Z,3.55
2024-02-10T13:10:59.132Z,3.72
2024-02-10T13:13:26.680Z,3.67
2024-02-10T13:15:53.878Z,4.90
2024-02-10T13:18:26.937Z,3.50
2024-02-10T13:21:00.056Z,3.15
2024-02-10T13:23:27.194Z,2.83
2024-02-10T13:25:54.280Z,2.88
2024-02-10T13:28:21.438Z,2.97
2024-02-10T13:30:49.019Z,3.03
2024-02-10T13:33:16.397Z,2.72
2024-02-10T13:35:44.076Z,2.72
2024-02-10T13:38:30.054Z,2.50
2024-02-10T13:41:16.016Z,2.85
2024-02-10T13:44:01.960Z,2.58
2024-02-10T13:46:47.964Z,2.92
2024-02-10T13:49:34.084Z,3.35
2024-02-10T13:52:20.929Z,3.22
2024-02-10T13:55:06.633Z,3.05
2024-02-10T13:57:53.072Z,2.80
2024-02-10T14:00:31.545Z,3.17
2024-02-10T14:03:03.465Z,2.87
2024-02-10T14:05:50.408Z,2.08
2024-02-10T14:08:37.991Z,2.75
2024-02-10T14:11:14.719Z,2.03
2024-02-10T14:13:47.407Z,2.10
2024-02-10T14:16:17.063Z,2.33
2024-02-10T14:18:45.279Z,2.45
2024-02-10T14:21:13.867Z,2.38
2024-02-10T14:23:41.222Z,2.83
2024-02-10T14:26:15.695Z,1.98
2024-02-10T14:28:56.657Z,2.65
2024-02-10T14:31:24.133Z,3.28
2024-02-10T14:33:54.735Z,2.25
2024-02-10T14:36:40.501Z,2.35
2024-02-10T14:39:16.284Z,2.00
2024-02-10T14:41:52.415Z,3.15
2024-02-10T14:44:22.367Z,2.30
2024-02-10T14:46:50.179Z,5.23
2024-02-10T14:49:18.188Z,3.30
2024-02-10T14:51:45.790Z,2.60
2024-02-10T14:54:13.097Z,2.97
2024-02-10T14:56:41.310Z,2.80
2024-02-10T14:59:12.426Z,2.10
2024-02-10T15:01:41.701Z,2.25
2024-02-10T15:04:09.121Z,2.45
2024-02-10T15:06:38.163Z,2.35
2024-02-10T15:09:09.805Z,2.20
2024-02-10T15:11:40.944Z,2.67
2024-02-10T15:14:10.157Z,2.10
2024-02-10T15:16:38.328Z,3.10
2024-02-10T15:19:05.794Z,2.50
2024-02-10T15:21:34.008Z,2.30
2024-02-10T15:24:01.828Z,2.60
2024-02-10T15:26:29.263Z,2.95
2024-02-10T15:28:57.501Z,2.72
2024-02-10T15:31:26.165Z,2.53
2024-02-10T15:33:57.565Z,2.47
2024-02-10T15:36:31.721Z,2.47
2024-02-10T15:39:02.370Z,3.17
2024-02-10T15:41:30.085Z,2.85
2024-02-10T15:43:57.293Z,3.13
2024-02-10T15:46:27.648Z,3.97
2024-02-10T15:48:55.602Z,3.33
2024-02-10T15:51:23.605Z,3.38
2024-02-10T15:53:51.065Z,2.40
2024-02-10T15:56:18.450Z,3.97
2024-02-10T15:58:50.482Z,3.00
2024-02-10T16:01:18.966Z,5.70
2024-02-10T16:03:46.245Z,2.95
2024-02-10T16:06:13.724Z,3.63
2024-02-10T16:08:48.279Z,4.35
2024-02-10T16:11:16.548Z,2.92
2024-02-10T16:13:45.415Z,3.05
2024-02-10T16:16:17.441Z,3.58
2024-02-10T16:18:49.152Z,3.20
2024-02-10T16:21:28.707Z,3.20
2024-02-10T16:23:57.869Z,3.20
2024-02-10T16:26:27.082Z,3.25
2024-02-10T16:28:55.229Z,3.78
2024-02-10T16:31:22.869Z,3.10
2024-02-10T16:33:52.241Z,3.60
2024-02-10T16:36:25.519Z,3.40
2024-02-10T16:38:53.054Z,3.47
2024-02-10T16:41:21.062Z,3.17
2024-02-10T16:43:48.426Z,3.22
2024-02-10T16:46:18.122Z,4.05
2024-02-10T16:48:50.402Z,3.25
2024-02-10T16:51:28.170Z,3.13
2024-02-10T16:53:56.690Z,3.30
2024-02-10T16:56:25.980Z,2.88
2024-02-10T16:58:58.022Z,3.42
2024-02-10T17:01:25.438Z,2.90
2024-02-10T17:03:53.201Z,3.07
2024-02-10T17:06:21.907Z,2.95
2024-02-10T17:08:50.760Z,3.65
2024-02-10T17:11:18.526Z,3.25
2024-02-10T17:13:47.673Z,4.75
2024-02-10T17:16:16.765Z,3.10
2024-02-10T17:18:46.106Z,3.38
2024-02-10T17:21:13.481Z,4.07
2024-02-10T17:23:40.626Z,3.20
2024-02-10T17:26:14.367Z,3.53
2024-02-10T17:28:42.633Z,3.30
2024-02-10T17:31:16.253Z,3.60
2024-02-10T17:33:43.817Z,3.40
2024-02-10T17:36:11.318Z,3.95
2024-02-10T17:38:43.696Z,3.75
2024-02-10T17:41:14.302Z,4.00
2024-02-10T17:43:41.801Z,3.80
2024-02-10T17:46:10.482Z,5.70
2024-02-10T17:48:40.114Z,4.18
2024-02-10T17:51:08.908Z,4.28
2024-02-10T17:53:37.881Z,4.22
2024-02-10T17:56:11.167Z,3.83
2024-02-10T17:58:38.676Z,5.38
2024-02-10T18:01:07.183Z,5.20
2024-02-10T18:03:37.332Z,5.05
2024-02-10T18:06:12.061Z,5.10
2024-02-10T18:08:41.868Z,6.32
2024-02-10T18:11:15.019Z,4.35
2024-02-10T18:13:49.527Z,3.78
2024-02-10T18:16:17.405Z,5.65
2024-02-10T18:18:48.760Z,3.53
2024-02-10T18:21:19.278Z,3.60
2024-02-10T18:23:48.628Z,3.42
2024-02-10T18:26:17.099Z,3.55
2024-02-10T18:28:45.170Z,3.70
2024-02-10T18:31:15.648Z,3.85
2024-02-10T18:36:18.806Z,3.80
2024-02-10T18:38:46.026Z,3.63
2024-02-10T18:41:17.983Z,3.60
2024-02-10T18:43:46.881Z,3.50
2024-02-10T18:46:15.402Z,3.83
2024-02-10T18:48:46.833Z,3.88
2024-02-10T18:51:18.837Z,4.00
2024-02-10T18:53:49.430Z,3.67
2024-02-10T18:56:24.837Z,4.68
2024-02-10T18:58:52.748Z,5.00
2024-02-10T19:01:23.698Z,4.40
2024-02-10T19:03:51.119Z,3.92
2024-02-10T19:06:19.130Z,4.32
2024-02-10T19:08:47.650Z,3.90
2024-02-10T19:11:14.825Z,7.50
2024-02-10T19:13:43.150Z,4.93
2024-02-10T19:16:13.425Z,3.83
2024-02-10T19:18:40.669Z,4.32
2024-02-10T19:21:13.317Z,4.40
2024-02-10T19:23:47.909Z,4.45
2024-02-10T19:26:16.178Z,12.57
2024-02-10T19:28:44.621Z,5.28
2024-02-10T19:31:13.884Z,5.07
2024-02-10T19:33:41.608Z,4.53
2024-02-10T19:36:09.605Z,4.78
2024-02-10T19:38:40.674Z,4.47
2024-02-10T19:41:08.308Z,4.75
2024-02-10T19:43:35.869Z,5.25
2024-02-10T19:46:06.164Z,4.88
2024-02-10T19:48:33.504Z,6.18
2024-02-10T19:51:00.652Z,5.37
2024-02-10T19:53:29.497Z,5.05
2024-02-10T19:55:57.130Z,7.57
2024-02-10T19:58:27.740Z,6.03
2024-02-10T20:00:58.765Z,4.70
2024-02-10T20:03:26.269Z,4.13
2024-02-10T20:05:56.287Z,4.33
2024-02-10T20:08:24.271Z,4.25
2024-02-10T20:10:51.601Z,4.63
2024-02-10T20:13:18.898Z,4.97
2024-02-10T20:15:46.045Z,4.35
2024-02-10T20:18:13.427Z,4.57
2024-02-10T20:20:42.568Z,5.32
2024-02-10T20:23:12.308Z,5.68
2024-02-10T20:25:45.638Z,4.78
2024-02-10T20:28:12.869Z,5.20
2024-02-10T20:30:42.324Z,4.70
2024-02-10T20:33:10.398Z,5.32
2024-02-10T20:35:42.178Z,4.67
2024-02-10T20:38:15.784Z,4.53
2024-02-10T20:40:43.025Z,4.70
2024-02-10T20:43:10.192Z,4.63
2024-02-10T20:45:38.514Z,4.40
2024-02-10T20:48:06.267Z,5.10
2024-02-10T20:50:34.896Z,4.40
2024-02-10T20:53:02.214Z,4.78
2024-02-10T20:55:29.588Z,4.88
2024-02-10T20:57:59.033Z,4.95
2024-02-10T21:00:26.424Z,5.00
2024-02-10T21:02:53.545Z,7.10
2024-02-10T21:05:23.192Z,5.30
2024-02-10T21:07:52.148Z,6.15
2024-02-10T21:10:22.673Z,4.90
2024-02-10T21:12:50.778Z,5.63
2024-02-10T21:15:18.344Z,5.30
2024-02-10T21:17:47.554Z,5.05
2024-02-10T21:20:16.738Z,5.13
2024-02-10T21:22:48.389Z,6.30
2024-02-10T21:25:16.056Z,5.73
2024-02-10T21:27:44.475Z,4.80
2024-02-10T21:30:12.747Z,4.95
2024-02-10T21:32:40.054Z,5.25
2024-02-10T21:35:08.759Z,4.93
2024-02-10T21:37:35.969Z,5.60
2024-02-10T21:40:04.610Z,5.50
2024-02-10T21:42:31.918Z,5.13
2024-02-10T21:45:00.413Z,5.53
2024-02-10T21:47:27.791Z,5.00
2024-02-10T21:49:57.342Z,5.30
2024-02-10T21:52:24.628Z,4.35
2024-02-10T21:54:58.173Z,5.20
2024-02-10T21:57:30.835Z,4.50
2024-02-10T21:59:58.121Z,5.78
2024-02-10T22:02:27.539Z,4.50
2024-02-10T22:04:55.511Z,4.72
2024-02-10T22:07:22.776Z,4.67
2024-02-10T22:09:50.574Z,5.10
2024-02-10T22:12:17.732Z,4.70
2024-02-10T22:14:45.026Z,4.63
2024-02-10T22:17:12.177Z,4.53
2024-02-10T22:19:39.658Z,4.57
2024-02-10T22:22:08.559Z,5.60
2024-02-10T22:24:35.708Z,5.60
2024-02-10T22:27:03.082Z,4.10
2024-02-10T22:29:30.969Z,5.15
2024-02-10T22:31:59.849Z,4.53
2024-02-10T22:34:30.910Z,6.00
2024-02-10T22:36:58.167Z,4.32
2024-02-10T22:39:28.665Z,4.22
2024-02-10T22:41:56.768Z,5.75
2024-02-10T22:44:24.304Z,4.70
2024-02-10T22:46:58.868Z,4.10
2024-02-10T22:49:33.809Z,4.45
2024-02-10T22:52:01.002Z,4.17
2024-02-10T22:54:28.907Z,5.10
2024-02-10T22:56:56.388Z,4.78
2024-02-10T22:59:26.523Z,5.10
2024-02-10T23:01:53.940Z,5.10
2024-02-10T23:04:21.190Z,4.50
2024-02-10T23:06:53.010Z,5.00
2024-02-10T23:09:34.643Z,5.07
2024-02-10T23:12:04.517Z,6.60
2024-02-10T23:14:31.883Z,4.88
2024-02-10T23:17:02.698Z,4.65
2024-02-10T23:19:31.130Z,5.07
2024-02-10T23:22:00.257Z,5.30
2024-02-10T23:24:27.610Z,5.60
2024-02-10T23:26:55.530Z,5.00
2024-02-10T23:29:23.062Z,5.38
2024-02-10T23:31:53.310Z,5.50
2024-02-10T23:34:23.875Z,6.10
2024-02-10T23:36:54.291Z,5.25
2024-02-10T23:39:21.604Z,6.78
2024-02-10T23:41:50.456Z,5.93
2024-02-10T23:44:17.987Z,5.50
2024-02-10T23:46:45.192Z,6.00
2024-02-10T23:49:12.788Z,6.70
2024-02-10T23:51:41.894Z,6.67
2024-02-10T23:54:12.578Z,6.22
2024-02-10T23:56:39.724Z,6.38
2024-02-10T23:59:07.350Z,6.57
